Time;durP1;ratioP1;P1;durP2;ratioP2;P2;SDS_P1;SDS_P2;PMS_P1;PMS_P2;Temp;Humidity;BMP_temperature;BMP_pressure;BME280_temperature;BME280_humidity;BME280_pressure;Samples;Min_cycle;Max_cycle;Signal;HPM_P1;HPM_P2
2021/09/22 00:00:11;;;;;;;6.13;3.13;;;;;;;12.37;61.16;100972.06;5115423;28;20073;-76
2021/09/22 00:02:39;;;;;;;6.05;3.22;;;;;;;12.24;61.67;100971.88;5115310;28;20215;-76
2021/09/22 00:05:11;;;;;;;6.88;3.75;;;;;;;12.37;61.36;100956.03;5097344;28;20079;-75
2021/09/22 00:07:39;;;;;;;7.03;3.67;;;;;;;12.38;61.01;100948.84;5114789;28;20826;-75
2021/09/22 00:10:12;;;;;;;9.48;3.38;;;;;;;12.48;60.69;100953.59;5115354;28;20466;-75
2021/09/22 00:12:40;;;;;;;7.72;3.55;;;;;;;12.38;61.15;100946.19;5113904;28;20413;-75
2021/09/22 00:15:12;;;;;;;5.45;3.58;;;;;;;12.32;61.34;100947.38;5115227;28;20044;-76
2021/09/22 00:17:41;;;;;;;5.90;3.17;;;;;;;12.33;61.56;100951.78;5114826;28;20468;-77
2021/09/22 00:20:11;;;;;;;6.25;3.60;;;;;;;12.22;61.70;100940.81;5114889;28;20081;-78
2021/09/22 00:22:40;;;;;;;6.40;3.70;;;;;;;12.33;61.37;100941.94;5115013;28;20047;-78
2021/09/22 00:25:09;;;;;;;12.18;3.92;;;;;;;12.35;61.28;100931.13;5114940;28;20042;-78
2021/09/22 00:27:38;;;;;;;5.72;3.40;;;;;;;12.21;61.85;100917.69;5114542;28;20089;-78
2021/09/22 00:30:08;;;;;;;6.85;3.78;;;;;;;12.22;61.83;100930.13;5114799;28;20054;-78
2021/09/22 00:32:38;;;;;;;6.88;3.72;;;;;;;12.09;62.75;100931.75;5114240;28;20047;-79
2021/09/22 00:35:08;;;;;;;6.28;3.50;;;;;;;12.34;61.63;100934.78;5114894;28;20052;-78
2021/09/22 00:37:37;;;;;;;5.32;3.30;;;;;;;12.25;62.13;100936.16;5114436;28;20048;-76
2021/09/22 00:40:06;;;;;;;6.53;3.55;;;;;;;12.38;61.80;100925.63;5114732;28;20040;-76
2021/09/22 00:42:37;;;;;;;6.07;3.42;;;;;;;12.29;62.26;100931.50;5114350;28;20455;-74
2021/09/22 00:45:08;;;;;;;5.55;3.60;;;;;;;12.31;61.99;100919.75;5114474;28;20043;-75
2021/09/22 00:47:38;;;;;;;7.15;3.13;;;;;;;12.36;61.96;100914.16;5095933;28;20043;-75
2021/09/22 00:50:10;;;;;;;7.07;3.27;;;;;;;12.29;62.19;100915.47;5114447;28;20514;-75
2021/09/22 00:52:40;;;;;;;7.25;3.40;;;;;;;12.31;62.27;100908.19;5113922;28;20051;-75
2021/09/22 00:55:10;;;;;;;6.80;3.70;;;;;;;12.30;61.98;100911.84;5114301;28;20040;-75
2021/09/22 00:57:47;;;;;;;5.30;3.63;;;;;;;12.26;62.30;100900.47;5114018;28;20052;-75
2021/09/22 01:00:16;;;;;;;7.10;3.58;;;;;;;12.23;62.28;100899.75;5114446;28;20052;-75
2021/09/22 01:02:48;;;;;;;10.02;3.75;;;;;;;12.26;62.07;100896.91;5113875;28;20040;-75
2021/09/22 01:05:18;;;;;;;5.78;3.22;;;;;;;12.31;61.96;100892.16;5114402;28;20039;-75
2021/09/22 01:07:47;;;;;;;6.25;3.58;;;;;;;12.34;61.62;100900.00;5113683;28;20550;-76
2021/09/22 01:10:18;;;;;;;5.50;3.30;;;;;;;12.24;62.14;100912.16;5114076;28;20073;-76
2021/09/22 01:12:46;;;;;;;6.55;3.70;;;;;;;12.27;62.31;100906.66;5113652;28;20046;-76
2021/09/22 01:15:27;;;;;;;6.45;3.35;;;;;;;12.18;62.65;100901.84;5114361;28;20036;-76
2021/09/22 01:17:57;;;;;;;5.68;3.58;;;;;;;12.19;62.71;100901.75;5113774;28;20075;-77
2021/09/22 01:20:28;;;;;;;7.28;3.70;;;;;;;12.20;62.73;100898.13;5113374;28;20050;-77
2021/09/22 01:23:00;;;;;;;7.05;3.80;;;;;;;12.20;62.70;100898.13;5113566;28;20127;-76
2021/09/22 01:25:29;;;;;;;6.13;3.75;;;;;;;12.11;62.93;100885.25;5113579;28;20043;-78
2021/09/22 01:28:00;;;;;;;5.53;3.55;;;;;;;12.08;63.34;100888.13;5113804;28;20451;-77
2021/09/22 01:30:29;;;;;;;6.07;3.45;;;;;;;12.04;63.30;100890.09;5113809;28;20500;-78
2021/09/22 01:32:59;;;;;;;7.20;3.58;;;;;;;12.01;63.57;100892.06;5113381;28;20126;-77
2021/09/22 01:35:33;;;;;;;4.97;2.97;;;;;;;12.10;63.16;100899.59;5113524;28;20127;-77
2021/09/22 01:38:04;;;;;;;5.88;3.50;;;;;;;12.07;63.53;100890.88;5113650;28;20044;-76
2021/09/22 01:40:32;;;;;;;7.05;4.05;;;;;;;12.08;63.59;100895.28;5113365;28;20134;-74
2021/09/22 01:43:01;;;;;;;5.22;3.25;;;;;;;12.14;63.70;100879.72;5095282;28;20055;-74
2021/09/22 01:45:30;;;;;;;7.25;3.50;;;;;;;11.95;64.43;100879.91;5112988;28;20112;-74
2021/09/22 01:47:58;;;;;;;6.85;3.90;;;;;;;11.95;64.61;100879.91;5113235;28;20043;-74
2021/09/22 01:50:27;;;;;;;7.35;3.75;;;;;;;11.96;64.48;100876.28;5113277;28;20078;-75
2021/09/22 01:52:56;;;;;;;6.35;3.10;;;;;;;11.97;64.59;100872.69;5113570;28;20047;-75
2021/09/22 01:55:25;;;;;;;5.97;3.45;;;;;;;11.85;65.07;100861.78;5113380;28;20116;-75
2021/09/22 01:57:54;;;;;;;7.38;3.55;;;;;;;11.85;65.48;100853.78;5113430;28;20051;-76
2021/09/22 02:00:23;;;;;;;7.50;3.50;;;;;;;11.80;65.78;100859.38;5113614;28;20044;-75
2021/09/22 02:02:51;;;;;;;5.45;3.38;;;;;;;11.81;65.75;100861.13;5113221;28;20093;-75
2021/09/22 02:05:19;;;;;;;7.07;3.75;;;;;;;11.93;65.34;100856.88;5113367;28;20040;-77
2021/09/22 02:07:48;;;;;;;7.55;3.80;;;;;;;11.80;65.93;100856.72;5112863;28;20401;-78
2021/09/22 02:10:16;;;;;;;7.00;4.13;;;;;;;11.81;66.18;100855.75;5113048;28;20038;-77
2021/09/22 02:12:46;;;;;;;6.35;4.00;;;;;;;11.72;66.95;100856.25;5112719;28;20046;-77
2021/09/22 02:15:17;;;;;;;8.75;3.92;;;;;;;11.71;66.92;100863.41;5113418;28;20078;-77
2021/09/22 02:17:45;;;;;;;8.98;4.20;;;;;;;11.70;67.19;100866.16;5112927;28;20126;-77
2021/09/22 02:20:14;;;;;;;7.05;3.92;;;;;;;11.71;67.33;100866.06;5113162;28;20485;-77
2021/09/22 02:22:42;;;;;;;7.38;3.92;;;;;;;11.59;68.08;100865.91;5112709;28;20138;-77
2021/09/22 02:25:13;;;;;;;8.63;4.25;;;;;;;11.68;68.06;100863.56;5112991;28;20043;-77
2021/09/22 02:27:41;;;;;;;7.82;4.25;;;;;;;11.58;68.46;100869.47;5112871;28;20035;-77
2021/09/22 02:30:15;;;;;;;7.85;4.13;;;;;;;11.64;68.57;100864.69;5112747;28;20112;-77
2021/09/22 02:32:44;;;;;;;8.45;4.30;;;;;;;11.64;68.69;100861.13;5112577;28;20050;-77
2021/09/22 02:35:13;;;;;;;10.68;4.70;;;;;;;11.54;69.20;100865.25;5114542;28;20047;-78
2021/09/22 02:37:42;;;;;;;9.70;4.43;;;;;;;11.63;69.10;100856.75;5116952;28;20046;-78
2021/09/22 02:40:17;;;;;;;8.10;4.57;;;;;;;11.63;68.62;100868.28;5116870;28;20051;-79
2021/09/22 02:42:46;;;;;;;7.40;4.45;;;;;;;11.61;69.10;100864.00;5116877;28;20036;-79
2021/09/22 02:45:16;;;;;;;8.88;4.50;;;;;;;11.60;69.12;100855.13;5116919;28;20047;-79
2021/09/22 02:47:45;;;;;;;8.45;4.15;;;;;;;11.61;69.37;100853.31;5116431;28;20074;-79
2021/09/22 02:50:17;;;;;;;7.35;4.18;;;;;;;11.53;69.75;100851.03;5116791;28;20062;-79
2021/09/22 02:52:46;;;;;;;8.90;4.13;;;;;;;11.58;69.65;100848.09;5116508;28;20073;-77
2021/09/22 02:55:14;;;;;;;7.18;4.40;;;;;;;11.54;70.05;100842.06;5116887;28;20044;-76
2021/09/22 02:57:43;;;;;;;7.97;4.40;;;;;;;11.43;70.97;100833.78;5116123;28;20104;-76
2021/09/22 03:00:13;;;;;;;9.30;4.88;;;;;;;11.55;70.70;100835.78;5116711;28;20096;-78
2021/09/22 03:02:43;;;;;;;9.13;4.78;;;;;;;11.50;70.83;100829.00;5116318;28;20059;-78
2021/09/22 03:05:12;;;;;;;9.43;5.38;;;;;;;11.43;71.24;100823.09;5116488;28;20046;-76
2021/09/22 03:07:44;;;;;;;8.00;4.80;;;;;;;11.37;71.41;100826.97;5116179;28;20047;-76
2021/09/22 03:10:13;;;;;;;9.95;5.60;;;;;;;11.44;71.32;100825.69;5116571;28;20048;-76
2021/09/22 03:12:41;;;;;;;9.15;4.90;;;;;;;11.44;71.44;100820.34;5116165;28;20050;-75
2021/09/22 03:15:10;;;;;;;7.82;4.80;;;;;;;11.55;71.08;100821.56;5116231;28;20482;-75
2021/09/22 03:17:39;;;;;;;11.82;5.15;;;;;;;11.52;71.09;100817.25;5115847;28;20040;-75
2021/09/22 03:20:11;;;;;;;8.65;5.00;;;;;;;11.42;71.56;100813.38;5116237;28;20040;-76
2021/09/22 03:22:40;;;;;;;8.80;5.00;;;;;;;11.36;71.87;100813.69;5116070;28;20044;-76
2021/09/22 03:25:10;;;;;;;10.23;4.95;;;;;;;11.47;70.97;100812.16;5116051;28;20486;-76
2021/09/22 03:27:39;;;;;;;10.52;4.30;;;;;;;11.50;71.37;100810.28;5115627;28;20071;-75
2021/09/22 03:30:10;;;;;;;9.05;4.97;;;;;;;11.48;71.42;100805.00;5115825;28;20060;-75
2021/09/22 03:32:38;;;;;;;7.93;5.07;;;;;;;11.52;70.86;100803.03;5115563;28;20122;-75
2021/09/22 03:35:09;;;;;;;9.85;5.47;;;;;;;11.55;70.72;100794.84;5115914;28;20044;-77
2021/09/22 03:37:38;;;;;;;9.07;5.50;;;;;;;11.50;70.82;100792.44;5115557;28;20046;-77
2021/09/22 03:40:07;;;;;;;8.70;5.43;;;;;;;11.38;71.52;100804.66;5115582;28;20406;-77
2021/09/22 03:42:36;;;;;;;8.50;5.28;;;;;;;11.53;71.11;100807.44;5115455;28;20048;-76
2021/09/22 03:45:04;;;;;;;9.43;5.35;;;;;;;11.45;71.21;100813.19;5115865;28;20478;-75
2021/09/22 03:47:35;;;;;;;9.65;5.50;;;;;;;11.57;70.92;100808.97;5115203;28;20417;-76
2021/09/22 03:50:04;;;;;;;9.35;5.20;;;;;;;11.57;70.88;100803.63;5115314;28;20039;-75
2021/09/22 03:52:34;;;;;;;9.35;5.40;;;;;;;11.52;71.13;100816.41;5115263;28;20050;-79
2021/09/22 03:55:02;;;;;;;8.05;5.20;;;;;;;11.50;70.47;100800.47;5115919;28;20043;-77
2021/09/22 03:57:31;;;;;;;10.68;5.78;;;;;;;11.51;70.42;100799.50;5115438;28;20581;-75
2021/09/22 03:59:59;;;;;;;10.38;5.30;;;;;;;11.57;70.15;100804.50;5115705;28;20051;-75
2021/09/22 04:02:27;;;;;;;11.75;6.25;;;;;;;11.55;70.08;100805.53;5115531;28;20070;-75
2021/09/22 04:05:00;;;;;;;12.95;6.55;;;;;;;11.53;70.39;100813.63;5114981;28;20046;-75
2021/09/22 04:07:28;;;;;;;8.93;6.00;;;;;;;11.63;69.79;100803.31;5115510;28;20448;-75
2021/09/22 04:10:00;;;;;;;9.02;6.03;;;;;;;11.53;70.95;100802.09;5115403;28;20047;-75
2021/09/22 04:12:29;;;;;;;12.85;6.53;;;;;;;11.51;71.05;100794.16;5115194;28;20059;-75
2021/09/22 04:14:57;;;;;;;10.57;7.03;;;;;;;11.46;71.79;100791.75;5114640;28;20044;-75
2021/09/22 04:17:25;;;;;;;10.35;7.10;;;;;;;11.47;72.72;100797.94;5114777;28;20221;-75
2021/09/22 04:19:53;;;;;;;11.20;6.85;;;;;;;11.40;74.09;100800.09;5114762;28;20064;-75
2021/09/22 04:22:22;;;;;;;10.05;7.13;;;;;;;11.44;74.78;100808.81;5115071;28;20078;-75
2021/09/22 04:24:50;;;;;;;11.43;7.05;;;;;;;11.45;75.36;100799.84;5114669;28;20040;-75
2021/09/22 04:27:20;;;;;;;12.70;7.82;;;;;;;11.41;74.73;100799.16;5115032;28;20047;-77
2021/09/22 04:29:49;;;;;;;11.23;6.95;;;;;;;11.37;76.58;100800.25;5114280;28;20047;-78
2021/09/22 04:32:17;;;;;;;11.77;7.75;;;;;;;11.26;77.87;100804.47;5114731;28;20131;-76
2021/09/22 04:34:46;;;;;;;10.80;7.30;;;;;;;11.27;77.98;100799.03;5114478;28;20092;-77
2021/09/22 04:37:14;;;;;;;12.00;7.47;;;;;;;11.20;78.66;100800.34;5114825;28;20046;-79
2021/09/22 04:39:43;;;;;;;11.98;7.80;;;;;;;11.30;80.31;100790.88;5114428;28;20541;-80
2021/09/22 04:42:11;;;;;;;14.55;7.63;;;;;;;11.32;80.48;100799.66;5114763;28;20040;-73
2021/09/22 04:44:41;;;;;;;13.32;7.93;;;;;;;11.24;82.70;100796.53;5114090;28;20046;-75
2021/09/22 04:47:11;;;;;;;11.85;7.95;;;;;;;11.20;81.84;100794.13;5114418;28;20047;-73
2021/09/22 04:49:39;;;;;;;11.38;7.50;;;;;;;11.19;81.88;100798.56;5113981;28;20478;-74
2021/09/22 04:52:07;;;;;;;11.35;7.68;;;;;;;11.19;82.43;100795.91;5095971;28;20494;-72
2021/09/22 04:54:38;;;;;;;12.23;8.40;;;;;;;11.19;84.05;100787.91;5114014;28;20044;-78
2021/09/22 04:57:07;;;;;;;14.02;8.52;;;;;;;11.13;83.97;100789.13;5113669;28;20051;-74
2021/09/22 04:59:35;;;;;;;14.80;8.27;;;;;;;11.16;84.84;100788.06;5114189;28;20054;-74
2021/09/22 05:02:05;;;;;;;14.82;8.10;;;;;;;11.09;83.71;100786.69;5113638;28;20394;-74
2021/09/22 05:04:33;;;;;;;13.55;7.93;;;;;;;11.04;85.82;100783.41;5114051;28;20055;-74
2021/09/22 05:07:02;;;;;;;11.68;7.55;;;;;;;11.09;84.32;100778.66;5113463;28;20040;-77
2021/09/22 05:09:30;;;;;;;14.68;8.32;;;;;;;11.00;85.48;100779.16;5113449;28;20474;-73
2021/09/22 05:12:00;;;;;;;15.48;9.15;;;;;;;10.99;84.66;100786.31;5113538;28;20043;-78
2021/09/22 05:14:31;;;;;;;15.07;8.23;;;;;;;11.01;84.66;100779.09;5113696;28;20493;-78
2021/09/22 05:17:00;;;;;;;13.50;9.02;;;;;;;10.99;85.79;100788.97;5113362;28;20043;-78
2021/09/22 05:19:30;;;;;;;16.02;9.70;;;;;;;10.91;87.29;100777.00;5113700;28;20047;-78
2021/09/22 05:21:58;;;;;;;15.43;9.95;;;;;;;10.96;87.35;100780.28;5113701;28;20031;-79
2021/09/22 05:24:27;;;;;;;13.40;8.48;;;;;;;10.99;87.29;100780.09;5113929;28;20143;-77
2021/09/22 05:26:55;;;;;;;12.63;7.97;;;;;;;11.00;87.16;100776.50;5113557;28;20069;-78
2021/09/22 05:29:23;;;;;;;15.55;8.43;;;;;;;10.94;87.63;100783.03;5113477;28;20056;-74
2021/09/22 05:31:51;;;;;;;14.30;9.25;;;;;;;10.96;87.14;100780.28;5113409;28;20040;-75
2021/09/22 05:34:20;;;;;;;15.55;9.82;;;;;;;11.00;90.18;100787.16;5113333;28;20051;-75
2021/09/22 05:36:49;;;;;;;15.63;9.00;;;;;;;10.96;89.37;100783.81;5113238;28;20465;-75
2021/09/22 05:39:18;;;;;;;12.57;8.57;;;;;;;10.93;90.46;100780.44;5113373;28;20096;-75
2021/09/22 05:41:46;;;;;;;16.05;9.80;;;;;;;10.89;90.66;100774.41;5113313;28;20533;-75
2021/09/22 05:44:15;;;;;;;14.15;9.30;;;;;;;10.88;90.25;100786.00;5113536;28;20044;-75
2021/09/22 05:46:43;;;;;;;14.93;9.75;;;;;;;10.92;90.14;100776.06;5113085;28;20498;-75
2021/09/22 05:49:12;;;;;;;15.27;9.02;;;;;;;10.82;90.97;100776.53;5113136;28;20039;-75
2021/09/22 05:51:40;;;;;;;15.85;9.57;;;;;;;10.69;92.59;100778.13;5113258;28;20044;-74
2021/09/22 05:54:10;;;;;;;14.50;9.07;;;;;;;10.73;93.42;100779.69;5113423;28;20043;-74
2021/09/22 05:56:38;;;;;;;15.10;9.43;;;;;;;10.68;93.56;100781.72;5113540;28;20066;-79
2021/09/22 05:59:06;;;;;;;15.55;10.15;;;;;;;10.74;94.65;100776.09;5113066;28;20052;-77
2021/09/22 06:01:34;;;;;;;17.67;10.55;;;;;;;10.79;95.84;100779.34;5113192;28;20046;-76
2021/09/22 06:04:03;;;;;;;18.73;10.80;;;;;;;10.79;96.83;100783.84;5114220;28;20070;-77
2021/09/22 06:06:32;;;;;;;14.93;9.50;;;;;;;10.74;96.45;100786.75;5116905;28;20048;-75
2021/09/22 06:09:00;;;;;;;14.32;9.02;;;;;;;10.73;94.96;100779.69;5113005;28;20039;-77
2021/09/22 06:11:30;;;;;;;13.82;9.25;;;;;;;10.71;95.78;100775.38;5116921;28;20039;-77
2021/09/22 06:13:58;;;;;;;14.40;9.82;;;;;;;10.60;96.38;100781.25;5117449;28;20044;-78
2021/09/22 06:16:28;;;;;;;16.70;9.90;;;;;;;10.61;97.97;100780.31;5117136;28;20062;-77
2021/09/22 06:18:57;;;;;;;14.63;8.48;;;;;;;10.54;97.84;100781.59;5117305;28;20073;-75
2021/09/22 06:21:25;;;;;;;13.98;9.25;;;;;;;10.50;98.39;100782.69;5117375;28;20048;-75
2021/09/22 06:23:54;;;;;;;16.33;10.45;;;;;;;10.51;98.92;100787.06;5117219;28;20070;-74
2021/09/22 06:26:24;;;;;;;14.68;9.05;;;;;;;10.46;99.21;100791.78;5117054;28;20125;-73
2021/09/22 06:28:54;;;;;;;14.38;9.55;;;;;;;10.46;99.22;100791.78;5116541;28;20036;-74
2021/09/22 06:31:23;;;;;;;13.00;8.30;;;;;;;10.44;98.12;100789.22;5117155;28;20051;-73
2021/09/22 06:33:52;;;;;;;16.25;10.63;;;;;;;10.49;99.42;100787.16;5116694;28;20454;-72
2021/09/22 06:36:20;;;;;;;15.20;10.23;;;;;;;10.46;99.63;100797.13;5116973;28;20046;-72
2021/09/22 06:38:49;;;;;;;15.25;10.13;;;;;;;10.43;100.00;100807.97;5116621;28;20042;-70
2021/09/22 06:41:17;;;;;;;14.52;9.85;;;;;;;10.46;100.00;100798.00;5116458;28;20055;-71
2021/09/22 06:43:46;;;;;;;14.90;9.77;;;;;;;10.38;100.00;100796.66;5117125;28;20134;-73
2021/09/22 06:46:16;;;;;;;16.15;9.82;;;;;;;10.32;100.00;100796.00;5098800;28;20482;-72
2021/09/22 06:48:46;;;;;;;21.00;10.55;;;;;;;10.27;100.00;100803.38;5116303;28;20048;-71
2021/09/22 06:51:18;;;;;;;19.80;11.15;;;;;;;10.25;100.00;100794.59;5116806;28;20043;-71
2021/09/22 06:53:47;;;;;;;13.88;8.25;;;;;;;10.17;100.00;100802.09;5116674;28;20039;-77
2021/09/22 06:56:15;;;;;;;17.27;11.05;;;;;;;10.20;100.00;100806.41;5116799;28;20127;-74
2021/09/22 06:58:43;;;;;;;14.52;9.13;;;;;;;10.15;100.00;100803.09;5116654;28;20050;-74
2021/09/22 07:01:12;;;;;;;18.88;11.32;;;;;;;10.15;100.00;100798.66;5116808;28;20047;-75
2021/09/22 07:03:42;;;;;;;21.40;11.38;;;;;;;10.15;100.00;100803.97;5116223;28;20075;-74
2021/09/22 07:06:12;;;;;;;16.45;11.57;;;;;;;10.18;100.00;100802.94;5115916;28;20040;-74
2021/09/22 07:08:40;;;;;;;19.20;11.38;;;;;;;10.17;100.00;100801.22;5098039;28;20051;-74
2021/09/22 07:11:09;;;;;;;19.80;12.18;;;;;;;10.23;100.00;100801.81;5115936;28;20047;-74
2021/09/22 07:13:38;;;;;;;18.65;12.07;;;;;;;10.21;100.00;100808.97;5116274;28;20105;-74
2021/09/22 07:16:08;;;;;;;18.27;12.10;;;;;;;10.31;100.00;100810.28;5115535;28;20055;-74
2021/09/22 07:18:37;;;;;;;18.77;11.70;;;;;;;10.35;100.00;100815.47;5116035;28;20040;-75
2021/09/22 07:21:07;;;;;;;19.35;13.10;;;;;;;10.41;100.00;100810.69;5114783;28;20035;-75
2021/09/22 07:23:55;;;;;;;17.27;11.63;;;;;;;10.42;100.00;100814.22;5115465;28;20097;-75
2021/09/22 07:26:23;;;;;;;17.77;12.43;;;;;;;10.32;100.00;100803.13;5116004;28;20071;-74
2021/09/22 07:28:51;;;;;;;19.42;12.95;;;;;;;10.34;100.00;100805.75;5115513;28;20039;-75
2021/09/22 07:31:19;;;;;;;19.85;13.57;;;;;;;10.42;100.00;100803.53;5115441;28;20083;-75
2021/09/22 07:33:48;;;;;;;18.25;12.80;;;;;;;10.49;100.00;100807.63;5116065;28;20474;-74
2021/09/22 07:36:18;;;;;;;19.05;13.15;;;;;;;10.49;100.00;100807.63;5115697;28;20048;-75
2021/09/22 07:38:47;;;;;;;20.80;13.80;;;;;;;10.52;100.00;100805.69;5116102;28;20040;-74
2021/09/22 07:41:15;;;;;;;21.60;13.07;;;;;;;10.59;100.00;100803.53;5115750;28;20044;-74
2021/09/22 07:43:43;;;;;;;23.52;13.52;;;;;;;10.64;100.00;100801.53;5115693;28;20097;-75
2021/09/22 07:46:12;;;;;;;20.95;14.13;;;;;;;10.69;100.00;100804.78;5115407;28;20101;-75
2021/09/22 07:48:40;;;;;;;18.85;12.52;;;;;;;10.76;100.00;100800.88;5115391;28;20085;-75
2021/09/22 07:51:09;;;;;;;19.25;12.95;;;;;;;10.72;100.00;100806.47;5115050;28;20043;-75
2021/09/22 07:53:39;;;;;;;18.17;11.50;;;;;;;10.59;100.00;100803.53;5115313;28;20051;-74
2021/09/22 07:56:08;;;;;;;21.60;14.35;;;;;;;10.59;100.00;100799.06;5115115;28;20040;-75
2021/09/22 07:58:36;;;;;;;21.55;13.68;;;;;;;10.53;100.00;100809.22;5115236;28;20482;-75
2021/09/22 08:01:06;;;;;;;20.63;14.02;;;;;;;10.49;100.00;100810.28;5115362;28;20078;-75
2021/09/22 08:03:35;;;;;;;19.95;13.00;;;;;;;10.52;100.00;100803.03;5097219;28;20048;-73
2021/09/22 08:06:04;;;;;;;19.50;13.15;;;;;;;10.67;100.00;100797.81;5115305;28;20036;-75
2021/09/22 08:08:32;;;;;;;20.42;12.98;;;;;;;10.63;100.00;100794.47;5115522;28;20044;-74
2021/09/22 08:11:02;;;;;;;20.05;14.27;;;;;;;10.77;100.00;100802.59;5114645;28;20043;-75
2021/09/22 08:13:31;;;;;;;18.75;12.38;;;;;;;10.84;100.00;100804.00;5115330;28;20044;-74
2021/09/22 08:15:59;;;;;;;19.50;12.65;;;;;;;10.89;100.00;100801.09;5114498;28;20051;-75
2021/09/22 08:18:28;;;;;;;22.50;13.68;;;;;;;10.98;100.00;100797.06;5115091;28;20048;-75
2021/09/22 08:20:56;;;;;;;17.25;12.65;;;;;;;10.85;100.00;100799.53;5114708;28;20042;-75
2021/09/22 08:23:24;;;;;;;18.23;11.38;;;;;;;10.93;100.00;100791.13;5114781;28;20049;-75
2021/09/22 08:25:53;;;;;;;17.92;12.15;;;;;;;11.03;100.00;100790.56;5114486;28;20035;-75
2021/09/22 08:28:23;;;;;;;19.23;13.50;;;;;;;11.01;100.00;100787.09;5114790;28;20040;-75
2021/09/22 08:30:51;;;;;;;20.67;12.57;;;;;;;11.07;100.00;100785.91;5114415;28;20081;-75
2021/09/22 08:33:19;;;;;;;19.88;12.43;;;;;;;11.00;100.00;100789.84;5113738;28;20505;-75
2021/09/22 08:35:48;;;;;;;17.27;12.00;;;;;;;11.14;100.00;100795.31;5096258;28;20039;-75
2021/09/22 08:38:16;;;;;;;18.15;13.25;;;;;;;11.35;100.00;100786.13;5114428;28;20193;-74
2021/09/22 08:40:44;;;;;;;19.67;12.25;;;;;;;11.37;100.00;100783.38;5114529;28;20130;-74
2021/09/22 08:43:16;;;;;;;17.73;11.75;;;;;;;11.39;100.00;100782.34;5114112;28;20047;-73
2021/09/22 08:45:48;;;;;;;18.52;12.00;;;;;;;11.35;100.00;100779.94;5114419;28;20046;-74
2021/09/22 08:48:17;;;;;;;18.13;12.20;;;;;;;11.44;100.00;100774.94;5113771;28;20047;-74
2021/09/22 08:50:45;;;;;;;14.10;9.73;;;;;;;11.39;100.00;100779.69;5113715;28;20051;-75
2021/09/22 08:53:14;;;;;;;15.80;12.35;;;;;;;11.34;100.00;100775.53;5113783;28;20039;-75
2021/09/22 08:55:42;;;;;;;16.88;10.77;;;;;;;11.25;100.00;100779.56;5113251;28;20437;-74
2021/09/22 08:58:10;;;;;;;18.25;12.98;;;;;;;11.29;100.00;100778.47;5113525;28;20047;-74
2021/09/22 09:00:39;;;;;;;16.73;12.00;;;;;;;11.45;100.00;100776.66;5113803;28;20052;-75
2021/09/22 09:03:09;;;;;;;16.95;11.82;;;;;;;11.53;100.00;100781.59;5114213;28;20040;-75
2021/09/22 09:05:38;;;;;;;16.38;11.20;;;;;;;11.56;100.00;100775.19;5114241;28;20036;-74
2021/09/22 09:08:08;;;;;;;16.60;11.88;;;;;;;11.68;100.00;100775.41;5113850;28;20051;-75
2021/09/22 09:10:37;;;;;;;16.80;11.75;;;;;;;11.81;100.00;100775.59;5114083;28;20039;-74
2021/09/22 09:13:08;;;;;;;15.60;11.15;;;;;;;11.89;100.00;100777.81;5113988;28;20108;-74
2021/09/22 09:15:39;;;;;;;13.68;9.27;;;;;;;11.72;100.00;100776.06;5113737;28;20070;-74
2021/09/22 09:18:15;;;;;;;15.55;10.07;;;;;;;11.52;100.00;100774.53;5113787;28;20047;-75
2021/09/22 09:20:47;;;;;;;15.40;11.43;;;;;;;11.60;100.00;100774.97;5113839;28;20428;-75
2021/09/22 09:23:17;;;;;;;15.20;11.40;;;;;;;11.71;100.00;100779.69;5113578;28;20511;-75
2021/09/22 09:25:53;;;;;;;16.13;11.23;;;;;;;11.58;100.00;100781.31;5113711;28;20147;-75
2021/09/22 09:28:25;;;;;;;16.38;10.88;;;;;;;11.56;100.00;100788.56;5113789;28;20040;-75
2021/09/22 09:30:58;;;;;;;13.25;10.10;;;;;;;11.58;100.00;100783.97;5114035;28;20411;-75
2021/09/22 09:33:47;;;;;;;;;;;;;;;11.53;100.00;100778.06;5113842;28;20126;-75
2021/09/22 09:36:26;;;;;;;14.15;10.23;;;;;;;11.60;100.00;100766.94;5110217;28;19924;-75
2021/09/22 09:39:07;;;;;;;14.55;9.88;;;;;;;11.52;100.00;100768.31;5113656;28;20035;-74
2021/09/22 09:41:42;;;;;;;13.02;8.52;;;;;;;11.63;100.00;100760.56;5095841;28;20047;-74
2021/09/22 09:44:12;;;;;;;16.55;9.60;;;;;;;11.79;100.00;100755.22;5095155;28;20120;-75
2021/09/22 09:46:42;;;;;;;16.55;10.93;;;;;;;11.93;100.00;100758.84;5113312;28;20036;-75
2021/09/22 09:49:12;;;;;;;16.33;10.70;;;;;;;12.03;100.00;100754.66;5113164;28;20104;-75
2021/09/22 09:51:44;;;;;;;13.57;9.45;;;;;;;12.01;100.00;100743.22;5113406;28;20147;-75
2021/09/22 09:54:19;;;;;;;14.38;10.02;;;;;;;12.08;100.00;100742.88;5113305;28;20061;-75
2021/09/22 09:56:51;;;;;;;13.95;10.13;;;;;;;12.11;100.00;100750.69;5113419;28;20122;-75
2021/09/22 09:59:21;;;;;;;13.68;9.52;;;;;;;12.12;100.00;100752.41;5113218;28;20065;-75
2021/09/22 10:01:52;;;;;;;15.73;9.68;;;;;;;12.13;100.00;100738.09;5113462;28;20417;-75
2021/09/22 10:04:23;;;;;;;13.70;10.00;;;;;;;12.42;100.00;100736.34;5112986;28;20059;-75
2021/09/22 10:06:53;;;;;;;13.60;8.70;;;;;;;12.58;100.00;100732.69;5112987;28;20443;-75
2021/09/22 10:09:21;;;;;;;13.57;8.68;;;;;;;12.64;100.00;100727.88;5112702;28;20040;-75
2021/09/22 10:11:50;;;;;;;11.15;8.27;;;;;;;12.77;100.00;100728.88;5112978;28;20054;-75
2021/09/22 10:14:19;;;;;;;14.55;9.57;;;;;;;12.84;100.00;100724.88;5112784;28;20050;-75
2021/09/22 10:16:51;;;;;;;12.23;8.05;;;;;;;12.97;100.00;100717.78;5113129;28;20122;-75
2021/09/22 10:19:21;;;;;;;13.30;9.77;;;;;;;12.76;100.00;100722.66;5112564;28;20040;-75
2021/09/22 10:21:50;;;;;;;13.75;7.53;;;;;;;12.84;100.00;100712.34;5112169;28;20047;-75
2021/09/22 10:24:22;;;;;;;13.90;9.25;;;;;;;12.63;100.00;100708.28;5111733;28;20043;-75
2021/09/22 10:26:51;;;;;;;12.10;8.98;;;;;;;12.64;100.00;100717.19;5112253;28;20123;-75
2021/09/22 10:29:25;;;;;;;13.48;7.68;;;;;;;12.64;100.00;100717.19;5111551;28;20059;-75
2021/09/22 10:31:54;;;;;;;11.23;8.95;;;;;;;12.73;100.00;100711.25;5112532;28;20053;-74
2021/09/22 10:34:35;;;;;;;13.43;9.27;;;;;;;13.02;99.81;100707.63;5094088;28;20141;-76
2021/09/22 10:37:06;;;;;;;12.07;8.40;;;;;;;13.17;97.56;100705.81;5112386;28;20432;-75
2021/09/22 10:39:46;;;;;;;12.30;8.50;;;;;;;13.48;96.00;100696.69;5112450;28;20440;-75
2021/09/22 10:42:26;;;;;;;12.57;8.52;;;;;;;13.63;95.77;100697.50;5112395;28;20457;-75
2021/09/22 10:45:13;;;;;;;10.75;7.57;;;;;;;13.77;95.62;100702.81;5112246;28;20043;-76
2021/09/22 10:47:42;;;;;;;9.80;6.70;;;;;;;13.70;94.49;100701.47;5112803;28;20046;-75
2021/09/22 10:50:45;;;;;;;10.95;7.93;;;;;;;13.91;94.34;100697.41;5112369;28;20079;-74
2021/09/22 10:53:35;;;;;;;10.35;7.18;;;;;;;14.09;91.95;100695.31;5112231;28;20044;-76
2021/09/22 10:56:07;;;;;;;11.35;7.78;;;;;;;14.37;91.34;100696.09;5113530;28;20130;-74
2021/09/22 10:58:40;;;;;;;9.85;6.80;;;;;;;14.64;87.29;100698.72;5116465;28;20039;-75
2021/09/22 11:01:10;;;;;;;8.63;6.43;;;;;;;14.28;86.69;100690.41;5116248;28;20040;-75
2021/09/22 11:03:58;;;;;;;10.10;7.55;;;;;;;14.51;90.07;100685.28;5116587;28;20036;-76
2021/09/22 11:06:52;;;;;;;8.50;5.53;;;;;;;14.41;87.17;100685.03;5115879;28;20039;-76
2021/09/22 11:09:34;;;;;;;8.48;6.43;;;;;;;14.30;85.90;100688.47;5116245;28;20031;-75
2021/09/22 11:12:10;;;;;;;7.85;5.88;;;;;;;14.52;86.34;100682.50;5115884;28;20063;-75
2021/09/22 11:14:51;;;;;;;8.90;5.72;;;;;;;14.63;84.74;100683.56;5116455;28;20486;-74
2021/09/22 11:17:24;;;;;;;6.85;4.65;;;;;;;14.70;82.58;100680.34;5116260;28;20054;-75
2021/09/22 11:19:53;;;;;;;;;;;;;;;14.75;80.40;100672.81;5116970;28;20101;-75
2021/09/22 11:22:24;;;;;;;6.30;4.03;;;;;;;14.68;79.62;100663.50;5115914;28;19958;-76
2021/09/22 11:24:54;;;;;;;6.45;4.15;;;;;;;14.81;79.59;100656.28;5116081;28;20126;-75
2021/09/22 11:27:25;;;;;;;8.63;4.15;;;;;;;14.82;80.13;100668.75;5116060;28;20044;-75
2021/09/22 11:29:58;;;;;;;5.57;3.75;;;;;;;14.93;78.43;100669.81;5116213;28;20143;-75